aviador You're here:

KHFF Decoded Metar

HOFFMAN/MACKALL in NC, USA
Report Time2017-10-23 04:53:00
UTC Time2017-10-23 05:53:12
Flight Rules vfr VFR
Wind110° at 04 kt
W.Decomp.*RWY 11: 4.0 kt HW 0.4 kt RCW
RWY 16: 2.9 kt HW 2.8 kt LCW
RWY 04: 1.0 kt HW 3.9 kt RCW
W.Rank110° ranks 35
Current wind is below 110° avg. (4.2)
Visibility9999 m
Phenomena:N/A
Clouds:N/A
Expected CloudBase > 800 ft AGL from Temp-Dew spread
CeilingNone
Temp18°C (ISA +4)
Dew Point16°C (88% RH)
QNH1023 hPa
Density Alt725 ft
Elevation377 ft
Report Wrong Elevation
Raw Report
KHFF 230453Z AUTO 11004KT 10SM CLR 18/16 A3022 RMK AO2 SLP247
$=

Extra information for KHFF:More info

Metar Taf Metar & Taf Last 4 Metars F.Rules Stats Wind Profile Meteogram Temp Stats Airport Information Weather charts Add Link Nearby VenuesMetar ALERT Operation Metar Decoded Social comments

AIRNAV info for KHFF